Time;durP1;ratioP1;P1;durP2;ratioP2;P2;SDS_P1;SDS_P2;PMS_P1;PMS_P2;Temp;Humidity;BMP_temperature;BMP_pressure;BME280_temperature;BME280_humidity;BME280_pressure;Samples;Min_cycle;Max_cycle;Signal;HPM_P1;HPM_P2
2022/02/27 00:01:31;;;;;;;1.40;1.13;;;;;;;6.16;100.00;100561.38;7392338;19;20356;-85
2022/02/27 00:03:57;;;;;;;1.75;0.40;;;;;;;6.17;100.00;100557.44;7392044;19;20022;-85
2022/02/27 00:06:22;;;;;;;0.63;0.50;;;;;;;6.07;100.00;100565.50;7393974;19;20006;-84
2022/02/27 00:08:49;;;;;;;1.75;1.55;;;;;;;6.13;100.00;100563.00;7392695;19;20014;-85
2022/02/27 00:11:17;;;;;;;2.42;0.55;;;;;;;6.13;100.00;100556.72;7396124;19;20045;-84
2022/02/27 00:13:42;;;;;;;0.70;0.70;;;;;;;6.19;100.00;100557.78;7392556;19;20066;-85
2022/02/27 00:16:08;;;;;;;5.90;0.57;;;;;;;6.07;100.00;100562.75;7392433;19;20018;-85
2022/02/27 00:18:35;;;;;;;5.47;0.63;;;;;;;6.07;100.00;100557.22;7393436;19;20667;-85
2022/02/27 00:21:01;;;;;;;1.67;0.80;;;;;;;6.01;100.00;100561.69;7396124;19;20019;-86
2022/02/27 00:23:26;;;;;;;0.80;0.80;;;;;;;6.03;100.00;100570.34;7390144;19;20010;-85
2022/02/27 00:25:52;;;;;;;0.95;0.70;;;;;;;6.03;100.00;100553.75;7394161;19;20461;-86
2022/02/27 00:28:18;;;;;;;2.92;0.75;;;;;;;6.02;100.00;100546.66;7394799;19;20496;-85
2022/02/27 00:30:43;;;;;;;0.63;0.63;;;;;;;6.05;100.00;100545.81;7398893;19;20389;-85
2022/02/27 00:33:10;;;;;;;0.50;0.50;;;;;;;6.02;100.00;100546.66;7399233;19;20074;-85
2022/02/27 00:35:35;;;;;;;0.22;0.22;;;;;;;6.02;100.00;100551.44;7395558;19;20493;-85
2022/02/27 00:38:01;;;;;;;0.60;0.60;;;;;;;6.02;100.00;100541.13;7393718;19;20025;-85
2022/02/27 00:40:26;;;;;;;4.32;2.03;;;;;;;6.08;100.00;100550.50;7394395;19;20465;-84
2022/02/27 00:42:52;;;;;;;0.65;0.65;;;;;;;6.13;100.00;100557.47;7389747;19;20536;-85
2022/02/27 00:45:17;;;;;;;0.32;0.32;;;;;;;6.21;100.00;100561.69;7387950;19;20343;-85
2022/02/27 00:47:44;;;;;;;1.50;0.55;;;;;;;6.19;100.00;100566.06;7390037;19;20014;-85
2022/02/27 00:50:09;;;;;;;1.23;1.00;;;;;;;6.25;100.00;100561.59;7393866;19;20026;-85
2022/02/27 00:52:35;;;;;;;1.05;0.95;;;;;;;6.25;100.00;100558.81;7389744;19;20018;-85
2022/02/27 00:55:01;;;;;;;0.55;0.55;;;;;;;6.16;100.00;100566.91;7388735;19;20551;-84
2022/02/27 00:57:28;;;;;;;3.60;1.17;;;;;;;6.11;100.00;100566.22;7390738;19;20513;-85
2022/02/27 01:00:05;;;;;;;3.10;1.35;;;;;;;6.08;100.00;100574.59;7390228;19;20046;-85
2022/02/27 01:02:36;;;;;;;0.52;0.50;;;;;;;6.04;100.00;100571.13;7388030;19;20018;-85
2022/02/27 01:05:01;;;;;;;1.55;0.77;;;;;;;5.92;100.00;100580.84;7390244;19;20035;-85
2022/02/27 01:07:27;;;;;;;0.77;0.70;;;;;;;5.88;100.00;100582.91;7396575;19;20022;-85
2022/02/27 01:09:54;;;;;;;2.03;0.90;;;;;;;5.82;100.00;100601.16;7400191;19;20015;-85
2022/02/27 01:12:20;;;;;;;0.50;0.50;;;;;;;5.77;100.00;100604.41;7397515;19;20135;-85
2022/02/27 01:14:46;;;;;;;20.88;1.33;;;;;;;5.83;100.00;100608.25;7395972;19;20586;-85
2022/02/27 01:17:13;;;;;;;0.90;0.43;;;;;;;5.74;100.00;100612.78;7397157;19;20029;-84
2022/02/27 01:19:38;;;;;;;1.58;0.75;;;;;;;5.59;100.00;100615.00;7399333;19;20022;-84
2022/02/27 01:22:04;;;;;;;0.57;0.50;;;;;;;5.63;100.00;100612.97;7396540;19;20033;-85
2022/02/27 01:24:30;;;;;;;0.40;0.40;;;;;;;5.74;100.00;100601.72;7399273;19;20037;-85
2022/02/27 01:26:56;;;;;;;4.35;2.22;;;;;;;5.74;100.00;100610.78;7397908;19;20035;-84
2022/02/27 01:29:22;;;;;;;0.88;0.70;;;;;;;5.75;100.00;100608.81;7396240;19;20010;-84
2022/02/27 01:31:48;;;;;;;1.42;0.73;;;;;;;5.72;100.00;100609.63;7397289;19;20086;-85
2022/02/27 01:34:14;;;;;;;0.38;0.30;;;;;;;5.61;100.00;100607.09;7394595;19;20035;-85
2022/02/27 01:36:42;;;;;;;2.60;0.68;;;;;;;5.46;100.00;100597.50;7396776;19;20018;-86
2022/02/27 01:39:07;;;;;;;1.08;0.50;;;;;;;5.32;100.00;100597.78;7395051;19;20500;-85
2022/02/27 01:41:36;;;;;;;0.57;0.57;;;;;;;5.06;100.00;100596.66;7394086;19;20011;-85
2022/02/27 01:44:02;;;;;;;0.57;0.57;;;;;;;4.85;100.00;100596.22;7397339;19;20457;-85
2022/02/27 01:46:27;;;;;;;0.85;0.85;;;;;;;4.71;100.00;100596.41;7399675;19;20018;-85
2022/02/27 01:48:53;;;;;;;0.73;0.73;;;;;;;4.52;100.00;100593.16;7399879;19;20066;-84
2022/02/27 01:51:19;;;;;;;5.00;1.33;;;;;;;4.63;100.00;100579.97;7399539;19;20017;-85
2022/02/27 01:53:45;;;;;;;3.50;0.93;;;;;;;4.57;100.00;100591.88;7397794;19;20795;-84
2022/02/27 01:56:11;;;;;;;5.47;0.98;;;;;;;4.51;100.00;100599.06;7401089;19;20014;-85
2022/02/27 01:58:37;;;;;;;0.52;0.52;;;;;;;4.59;100.00;100593.03;7396548;19;20103;-84
2022/02/27 02:01:02;;;;;;;1.95;1.15;;;;;;;4.54;100.00;100592.75;7398859;19;20010;-84
2022/02/27 02:03:28;;;;;;;1.15;1.05;;;;;;;4.49;100.00;100588.47;7395366;19;20480;-85
2022/02/27 02:05:54;;;;;;;6.07;0.55;;;;;;;4.42;100.00;100585.81;7396434;19;20029;-85
2022/02/27 02:08:20;;;;;;;0.57;0.57;;;;;;;4.35;100.00;100585.91;7390756;19;20022;-85
2022/02/27 02:10:46;;;;;;;1.38;0.98;;;;;;;4.28;100.00;100580.50;7393982;19;20015;-86
2022/02/27 02:13:13;;;;;;;1.80;0.98;;;;;;;4.24;100.00;100579.78;7390682;19;20011;-85
2022/02/27 02:15:39;;;;;;;0.55;0.55;;;;;;;4.19;100.00;100576.69;7392827;19;20033;-85
2022/02/27 02:18:08;;;;;;;1.38;0.82;;;;;;;4.15;100.00;100590.53;7392736;19;20025;-86
2022/02/27 02:20:37;;;;;;;0.70;0.70;;;;;;;4.12;100.00;100571.28;7396333;19;20022;-85
2022/02/27 02:23:03;;;;;;;2.70;0.90;;;;;;;4.34;100.00;100576.09;7392594;19;20021;-85
2022/02/27 02:25:28;;;;;;;1.40;1.33;;;;;;;4.56;100.00;100576.56;7392123;19;20384;-85
2022/02/27 02:27:56;;;;;;;2.83;2.08;;;;;;;4.55;100.00;100573.00;7391108;19;20074;-86
2022/02/27 02:30:21;;;;;;;1.25;1.15;;;;;;;4.65;100.00;100584.31;7394234;19;20035;-84
2022/02/27 02:33:05;;;;;;;1.42;0.93;;;;;;;4.60;100.00;100591.84;7391840;19;20019;-85
2022/02/27 02:35:31;;;;;;;0.65;0.63;;;;;;;4.51;100.00;100588.03;7392959;19;20022;-84
2022/02/27 02:37:57;;;;;;;1.85;0.35;;;;;;;4.47;100.00;100587.31;7392727;19;20044;-84
2022/02/27 02:40:25;;;;;;;0.75;0.70;;;;;;;4.44;100.00;100591.69;7396064;19;20006;-85
2022/02/27 02:42:52;;;;;;;1.65;0.95;;;;;;;4.48;100.00;100584.13;7393609;19;20018;-85
2022/02/27 02:45:17;;;;;;;0.40;0.40;;;;;;;4.45;100.00;100587.75;7394079;19;20050;-85
2022/02/27 02:47:45;;;;;;;0.73;0.73;;;;;;;4.42;100.00;100599.59;7396547;19;20353;-85
2022/02/27 02:50:13;;;;;;;1.67;1.00;;;;;;;4.32;100.00;100592.25;7400448;19;20018;-85
2022/02/27 02:52:39;;;;;;;0.98;0.60;;;;;;;4.30;100.00;100600.16;7395668;19;20026;-85
2022/02/27 02:55:07;;;;;;;0.65;0.65;;;;;;;4.30;100.00;100594.66;7393992;19;20042;-85
2022/02/27 02:57:33;;;;;;;0.98;0.90;;;;;;;4.30;100.00;100586.38;7397305;19;20038;-85
2022/02/27 02:59:58;;;;;;;11.35;1.63;;;;;;;4.22;100.00;100582.16;7398341;19;20011;-85
2022/02/27 03:02:24;;;;;;;0.90;0.90;;;;;;;4.15;100.00;100576.75;7396361;19;20026;-85
2022/02/27 03:04:50;;;;;;;0.63;0.60;;;;;;;4.02;100.00;100573.00;7393347;19;20019;-86
2022/02/27 03:07:15;;;;;;;1.75;0.80;;;;;;;3.95;100.00;100584.09;7397142;19;20077;-84
2022/02/27 03:09:41;;;;;;;0.63;0.50;;;;;;;3.87;100.00;100571.59;7397482;19;20018;-84
2022/02/27 03:12:07;;;;;;;0.85;0.57;;;;;;;4.03;100.00;100582.81;7398381;19;20069;-87
2022/02/27 03:14:32;;;;;;;2.20;1.45;;;;;;;4.13;100.00;100581.91;7396943;19;20018;-89
2022/02/27 03:16:58;;;;;;;1.65;0.75;;;;;;;4.06;100.00;100573.72;7398899;19;20018;-89
2022/02/27 03:19:29;;;;;;;0.60;0.60;;;;;;;3.95;100.00;100569.53;7403207;19;20014;-89
2022/02/27 03:21:55;;;;;;;0.60;0.60;;;;;;;3.88;100.00;100562.13;7402254;19;20103;-88
2022/02/27 03:24:20;;;;;;;0.90;0.40;;;;;;;3.87;100.00;100565.31;7401717;19;20010;-86
2022/02/27 03:26:45;;;;;;;5.47;0.93;;;;;;;3.81;100.00;100556.72;7398227;19;20024;-86
2022/02/27 03:29:11;;;;;;;3.13;1.25;;;;;;;3.72;100.00;100556.44;7396629;19;20480;-86
2022/02/27 03:31:37;;;;;;;1.77;1.10;;;;;;;3.64;100.00;100546.69;7399879;19;20037;-86
2022/02/27 03:34:03;;;;;;;2.30;1.42;;;;;;;3.65;100.00;100548.25;7399611;19;20010;-87
2022/02/27 03:36:29;;;;;;;0.55;0.55;;;;;;;3.69;100.00;100549.00;7400129;19;20014;-87
2022/02/27 03:38:54;;;;;;;1.30;1.20;;;;;;;3.69;100.00;100543.50;7403020;19;20030;-87
2022/02/27 03:41:20;;;;;;;0.82;0.47;;;;;;;3.67;100.00;100534.84;7407380;19;20055;-87
2022/02/27 03:43:46;;;;;;;0.95;0.95;;;;;;;3.70;100.00;100528.53;7403983;19;20025;-87
2022/02/27 03:46:11;;;;;;;1.55;1.00;;;;;;;3.81;100.00;100529.94;7405610;19;20015;-87
2022/02/27 03:48:37;;;;;;;6.55;0.80;;;;;;;3.78;100.00;100532.75;7397872;19;20019;-87
2022/02/27 03:51:03;;;;;;;0.60;0.55;;;;;;;3.82;100.00;100525.22;7398101;19;20022;-87
2022/02/27 03:53:28;;;;;;;0.50;0.50;;;;;;;3.89;100.00;100522.38;7397429;19;20018;-88
2022/02/27 03:55:54;;;;;;;1.63;0.77;;;;;;;3.82;100.00;100530.72;7399918;19;20046;-88
2022/02/27 03:58:19;;;;;;;1.33;1.17;;;;;;;3.76;100.00;100529.63;7395240;19;20022;-87
2022/02/27 04:00:45;;;;;;;1.00;1.00;;;;;;;3.78;100.00;100521.75;7398383;19;20070;-87
2022/02/27 04:03:11;;;;;;;0.60;0.60;;;;;;;3.77;100.00;100526.47;7395546;19;20094;-87
2022/02/27 04:05:36;;;;;;;2.30;1.67;;;;;;;3.95;100.00;100506.16;7393727;19;20017;-88
2022/02/27 04:08:03;;;;;;;3.67;0.98;;;;;;;3.99;100.00;100507.66;7394108;19;20030;-87
2022/02/27 04:10:30;;;;;;;9.63;2.78;;;;;;;3.96;100.00;100505.75;7395042;19;20096;-88
2022/02/27 04:12:55;;;;;;;4.43;0.57;;;;;;;4.00;100.00;100511.22;7395407;19;20029;-87
2022/02/27 04:15:21;;;;;;;0.35;0.35;;;;;;;3.94;100.00;100505.41;7392857;19;20078;-87
2022/02/27 04:17:46;;;;;;;1.00;1.00;;;;;;;3.90;100.00;100498.38;7395492;19;20010;-88
2022/02/27 04:20:12;;;;;;;1.08;0.85;;;;;;;3.99;100.00;100512.41;7396804;19;20007;-87
2022/02/27 04:22:38;;;;;;;1.05;1.02;;;;;;;4.11;100.00;100509.88;7393814;19;20055;-87
2022/02/27 04:25:04;;;;;;;5.60;0.82;;;;;;;4.13;100.00;100499.22;7393604;19;20044;-88
2022/02/27 04:27:30;;;;;;;5.85;0.52;;;;;;;4.03;100.00;100486.34;7395335;19;20078;-88
2022/02/27 04:29:55;;;;;;;0.45;0.45;;;;;;;4.03;100.00;100491.84;7395380;19;20026;-88
2022/02/27 04:32:21;;;;;;;1.52;1.23;;;;;;;3.97;100.00;100487.22;7396017;19;20038;-87
2022/02/27 04:34:47;;;;;;;2.35;1.30;;;;;;;3.93;100.00;100492.81;7393283;19;20497;-88
2022/02/27 04:37:12;;;;;;;3.90;0.47;;;;;;;3.84;100.00;100489.78;7395036;19;20489;-87
2022/02/27 04:39:38;;;;;;;1.27;1.17;;;;;;;3.73;100.00;100487.16;7395557;19;20010;-87
2022/02/27 04:42:04;;;;;;;1.35;0.98;;;;;;;3.79;100.00;100493.75;7399469;19;20014;-88
2022/02/27 04:44:31;;;;;;;4.15;1.27;;;;;;;3.78;100.00;100483.97;7401315;19;20019;-87
2022/02/27 04:46:56;;;;;;;4.97;1.00;;;;;;;3.92;100.00;100474.69;7402706;19;20038;-87
2022/02/27 04:49:22;;;;;;;3.22;0.93;;;;;;;3.91;100.00;100472.38;7404886;19;20010;-86
2022/02/27 04:51:47;;;;;;;0.70;0.63;;;;;;;4.04;100.00;100468.63;7402770;19;20369;-87
2022/02/27 04:54:13;;;;;;;1.73;1.50;;;;;;;4.09;100.00;100465.41;7401154;19;20042;-87
2022/02/27 04:56:38;;;;;;;1.67;1.08;;;;;;;4.16;100.00;100465.28;7403166;19;20017;-88
2022/02/27 04:59:04;;;;;;;1.77;0.68;;;;;;;4.14;100.00;100464.94;7402618;19;20015;-87
2022/02/27 05:01:30;;;;;;;0.88;0.88;;;;;;;4.18;100.00;100459.38;7408858;19;20026;-88
2022/02/27 05:03:56;;;;;;;5.72;1.10;;;;;;;4.23;100.00;100467.94;7400858;19;20013;-89
2022/02/27 05:06:22;;;;;;;1.35;1.05;;;;;;;4.25;100.00;100471.06;7397623;19;20034;-85
2022/02/27 05:08:47;;;;;;;0.30;0.30;;;;;;;4.25;100.00;100471.06;7395823;19;20007;-87
2022/02/27 05:11:13;;;;;;;3.30;0.88;;;;;;;4.16;100.00;100479.06;7398603;19;20475;-84
2022/02/27 05:13:38;;;;;;;1.15;1.08;;;;;;;4.09;100.00;100470.13;7396787;19;20472;-86
2022/02/27 05:16:04;;;;;;;1.05;1.00;;;;;;;4.10;100.00;100466.97;7400523;19;20007;-86
2022/02/27 05:18:29;;;;;;;0.80;0.52;;;;;;;4.07;100.00;100470.53;7399768;19;20015;-84
2022/02/27 05:20:55;;;;;;;3.72;1.00;;;;;;;4.01;100.00;100482.44;7402629;19;20035;-87
2022/02/27 05:23:21;;;;;;;0.60;0.60;;;;;;;4.11;100.00;100474.03;7397891;19;20023;-86
2022/02/27 05:25:47;;;;;;;0.30;0.30;;;;;;;3.99;100.00;100466.34;7397048;19;20468;-86
2022/02/27 05:28:13;;;;;;;0.75;0.75;;;;;;;4.07;100.00;100467.03;7395467;19;20007;-87
2022/02/27 05:30:38;;;;;;;2.30;0.65;;;;;;;4.16;100.00;100448.00;7401055;19;20006;-87
2022/02/27 05:33:04;;;;;;;9.00;1.42;;;;;;;4.27;100.00;100454.88;7397858;19;20010;-87
2022/02/27 05:35:29;;;;;;;1.30;1.20;;;;;;;4.34;100.00;100446.50;7397712;19;20023;-86
2022/02/27 05:37:55;;;;;;;1.20;1.15;;;;;;;4.31;100.00;100438.31;7402995;19;20026;-86
2022/02/27 05:40:21;;;;;;;0.98;0.85;;;;;;;4.34;100.00;100446.50;7401447;19;20031;-87
2022/02/27 05:42:46;;;;;;;0.20;0.20;;;;;;;4.36;100.00;100444.09;7397158;19;20350;-87
2022/02/27 05:45:12;;;;;;;0.65;0.65;;;;;;;4.33;100.00;100444.94;7396730;19;20452;-88
2022/02/27 05:47:38;;;;;;;2.90;1.10;;;;;;;4.30;100.00;100433.97;7399434;19;20452;-89
2022/02/27 05:50:05;;;;;;;1.45;1.27;;;;;;;4.33;100.00;100433.91;7400450;19;20018;-88
2022/02/27 05:52:30;;;;;;;4.30;1.38;;;;;;;4.39;100.00;100426.72;7397872;19;20054;-88
2022/02/27 05:54:56;;;;;;;0.20;0.20;;;;;;;4.42;100.00;100423.13;7397827;19;20015;-88
2022/02/27 05:57:22;;;;;;;1.17;0.90;;;;;;;4.42;100.00;100431.38;7400287;19;20015;-88
2022/02/27 05:59:47;;;;;;;0.65;0.65;;;;;;;4.42;100.00;100428.63;7399220;19;20006;-89
2022/02/27 06:02:13;;;;;;;1.15;1.00;;;;;;;4.38;100.00;100430.69;7398373;19;20018;-87
2022/02/27 06:04:39;;;;;;;15.48;1.52;;;;;;;4.42;100.00;100431.38;7399093;19;20019;-86
2022/02/27 06:07:04;;;;;;;1.50;0.82;;;;;;;4.42;100.00;100436.13;7402167;19;20029;-90
2022/02/27 06:09:30;;;;;;;3.00;0.80;;;;;;;4.42;100.00;100436.13;7399700;19;20081;-89
2022/02/27 06:11:55;;;;;;;1.35;1.02;;;;;;;4.46;100.00;100432.09;7398810;19;20015;-91
2022/02/27 06:14:21;;;;;;;1.05;1.05;;;;;;;4.41;100.00;100440.88;7396856;19;20017;-92
2022/02/27 06:16:46;;;;;;;0.30;0.30;;;;;;;4.46;100.00;100448.66;7398471;19;20022;-92
2022/02/27 06:19:12;;;;;;;1.48;0.88;;;;;;;4.50;100.00;100443.84;7399215;19;20480;-93
2022/02/27 06:21:38;;;;;;;7.43;0.70;;;;;;;4.54;100.00;100450.13;7403275;19;20382;-91
2022/02/27 06:24:04;;;;;;;7.20;1.70;;;;;;;4.44;100.00;100456.56;7396871;19;20015;-91
2022/02/27 06:26:32;;;;;;;0.55;0.55;;;;;;;4.38;100.00;100449.97;7398357;19;20019;-92
2022/02/27 06:28:59;;;;;;;3.15;1.35;;;;;;;4.35;100.00;100453.56;7398813;19;20023;-94
2022/02/27 06:31:25;;;;;;;1.15;1.05;;;;;;;4.28;100.00;100459.22;7407679;19;20006;-92
2022/02/27 06:33:50;;;;;;;1.75;0.57;;;;;;;4.28;100.00;100464.72;7400658;19;20026;-93
2022/02/27 06:36:16;;;;;;;1.33;0.77;;;;;;;4.33;100.00;100464.22;7396988;19;20022;-88
2022/02/27 06:38:42;;;;;;;0.20;0.20;;;;;;;4.40;100.00;100469.63;7398450;19;20011;-90
2022/02/27 06:41:07;;;;;;;2.67;1.27;;;;;;;4.39;100.00;100470.84;7402931;19;20033;-90
2022/02/27 06:43:33;;;;;;;5.10;1.08;;;;;;;4.45;100.00;100484.94;7395821;19;20038;-91
2022/02/27 06:46:00;;;;;;;2.15;0.68;;;;;;;4.39;100.00;100481.88;7397261;19;20089;-90
2022/02/27 06:48:25;;;;;;;3.38;1.13;;;;;;;4.43;100.00;100487.31;7394398;19;20018;-90
2022/02/27 06:50:51;;;;;;;0.80;0.80;;;;;;;4.40;100.00;100477.91;7399941;19;20054;-85
2022/02/27 06:53:17;;;;;;;1.20;0.77;;;;;;;4.42;100.00;100478.25;7394734;19;20030;-88
2022/02/27 06:55:42;;;;;;;0.63;0.57;;;;;;;4.36;100.00;100476.41;7397543;19;20422;-90
2022/02/27 06:58:08;;;;;;;7.15;2.30;;;;;;;4.27;100.00;100479.69;7399583;19;20106;-89
2022/02/27 07:00:33;;;;;;;1.75;1.23;;;;;;;4.31;100.00;100480.41;7399072;19;20011;-92
2022/02/27 07:02:59;;;;;;;0.77;0.70;;;;;;;4.23;100.00;100473.47;7396553;19;20011;-91
2022/02/27 07:05:25;;;;;;;1.83;1.45;;;;;;;4.12;100.00;100478.34;7394468;19;20014;-91
2022/02/27 07:07:50;;;;;;;0.57;0.57;;;;;;;4.05;100.00;100480.44;7398228;19;20014;-89
2022/02/27 07:10:17;;;;;;;1.17;1.17;;;;;;;4.12;100.00;100489.38;7395822;19;20044;-83
2022/02/27 07:12:45;;;;;;;0.73;0.73;;;;;;;4.09;100.00;100483.91;7392919;19;20097;-82
2022/02/27 07:15:10;;;;;;;0.63;0.63;;;;;;;3.99;100.00;100480.13;7392644;19;20015;-84
2022/02/27 07:17:36;;;;;;;13.18;1.77;;;;;;;3.99;100.00;100477.34;7391506;19;20014;-85
2022/02/27 07:20:02;;;;;;;1.10;0.85;;;;;;;4.08;100.00;100477.63;7393862;19;20046;-84
2022/02/27 07:22:28;;;;;;;5.35;3.25;;;;;;;4.07;100.00;100476.06;7390213;19;20015;-84
2022/02/27 07:24:55;;;;;;;1.42;1.00;;;;;;;4.09;100.00;100479.19;7388829;19;20082;-84
2022/02/27 07:27:21;;;;;;;1.13;1.10;;;;;;;4.19;100.00;100472.72;7390197;19;20113;-88
2022/02/27 07:29:47;;;;;;;1.08;0.77;;;;;;;4.29;100.00;100477.28;7392034;19;20564;-83
2022/02/27 07:32:14;;;;;;;0.50;0.50;;;;;;;4.32;100.00;100486.72;7393613;19;20007;-84
2022/02/27 07:34:41;;;;;;;1.52;0.85;;;;;;;4.36;100.00;100482.69;7390304;19;20435;-84
2022/02/27 07:37:06;;;;;;;1.42;0.73;;;;;;;4.43;100.00;100488.13;7390496;19;20011;-84
2022/02/27 07:39:32;;;;;;;2.38;0.95;;;;;;;4.48;100.00;100490.38;7390565;19;20026;-85
2022/02/27 07:41:58;;;;;;;1.05;1.05;;;;;;;4.46;100.00;100498.28;7388302;19;20017;-84
2022/02/27 07:44:25;;;;;;;1.98;1.30;;;;;;;4.47;100.00;100491.59;7392447;19;20010;-84
2022/02/27 07:46:50;;;;;;;3.67;1.33;;;;;;;4.53;100.00;100491.88;7393939;19;20487;-84
2022/02/27 07:49:16;;;;;;;4.80;1.05;;;;;;;4.57;100.00;100493.38;7396133;19;20006;-84
2022/02/27 07:51:42;;;;;;;1.58;1.05;;;;;;;4.55;100.00;100495.00;7389163;19;20111;-84
2022/02/27 07:54:08;;;;;;;0.70;0.70;;;;;;;4.56;100.00;100497.34;7390718;19;20026;-84
2022/02/27 07:56:34;;;;;;;3.03;1.10;;;;;;;4.59;100.00;100493.75;7389684;19;20014;-84
2022/02/27 07:59:00;;;;;;;0.73;0.73;;;;;;;4.62;100.00;100486.59;7391822;19;20078;-84
2022/02/27 08:01:29;;;;;;;2.25;0.95;;;;;;;4.60;100.00;100489.81;7395449;19;20077;-84
2022/02/27 08:03:55;;;;;;;0.77;0.68;;;;;;;4.67;100.00;100482.59;7388027;19;20026;-85
2022/02/27 08:06:21;;;;;;;1.77;0.68;;;;;;;4.69;100.00;100474.69;7388525;19;20086;-83
2022/02/27 08:08:47;;;;;;;1.38;0.82;;;;;;;4.63;100.00;100477.91;7390139;19;20031;-83
2022/02/27 08:11:12;;;;;;;4.00;1.67;;;;;;;4.67;100.00;100474.31;7393243;19;20369;-83
2022/02/27 08:13:38;;;;;;;2.30;1.50;;;;;;;4.79;100.00;100476.47;7386559;19;20038;-83
2022/02/27 08:16:04;;;;;;;4.60;2.00;;;;;;;4.83;100.00;100479.97;7388511;19;20031;-84
2022/02/27 08:18:30;;;;;;;0.85;0.85;;;;;;;4.85;100.00;100470.03;7388462;19;20026;-83
2022/02/27 08:20:57;;;;;;;5.25;2.13;;;;;;;4.91;100.00;100473.09;7393847;19;20407;-83
2022/02/27 08:23:23;;;;;;;1.45;0.90;;;;;;;4.95;100.00;100477.38;7389809;19;20029;-83
2022/02/27 08:25:49;;;;;;;5.47;1.23;;;;;;;4.97;100.00;100487.97;7387868;19;20078;-83
2022/02/27 08:28:16;;;;;;;1.08;0.98;;;;;;;4.98;100.00;100484.03;7388154;19;20014;-83
2022/02/27 08:30:43;;;;;;;0.40;0.40;;;;;;;5.03;100.00;100486.28;7388702;19;20014;-82
2022/02/27 08:33:08;;;;;;;4.40;1.02;;;;;;;5.13;100.00;100486.06;7386609;19;20037;-82
2022/02/27 08:35:35;;;;;;;0.82;0.80;;;;;;;5.24;100.00;100485.91;7388449;19;20639;-82
2022/02/27 08:38:01;;;;;;;0.30;0.30;;;;;;;5.32;100.00;100481.78;7391321;19;20043;-82
2022/02/27 08:40:26;;;;;;;2.88;0.85;;;;;;;5.37;100.00;100478.53;7390923;19;20021;-82
2022/02/27 08:42:54;;;;;;;5.57;0.85;;;;;;;5.37;100.00;100473.00;7389016;19;20082;-80
2022/02/27 08:45:21;;;;;;;9.95;1.20;;;;;;;5.37;100.00;100470.25;7386917;19;20026;-83
2022/02/27 08:47:46;;;;;;;1.75;1.38;;;;;;;5.45;100.00;100468.13;7388480;19;20014;-83
2022/02/27 08:50:12;;;;;;;0.95;0.90;;;;;;;5.46;100.00;100464.91;7391964;19;20027;-82
2022/02/27 08:52:38;;;;;;;0.93;0.93;;;;;;;5.52;100.00;100479.81;7389907;19;20021;-81
2022/02/27 08:55:05;;;;;;;1.25;0.90;;;;;;;5.57;100.00;100482.06;7389198;19;20018;-82
2022/02/27 08:57:31;;;;;;;8.48;0.75;;;;;;;5.58;100.00;100486.38;7393272;19;20549;-83
2022/02/27 08:59:56;;;;;;;1.02;1.02;;;;;;;5.63;100.00;100496.91;7391122;19;20010;-83
2022/02/27 09:02:22;;;;;;;1.13;0.70;;;;;;;5.69;100.00;100498.00;7390680;19;20040;-83
2022/02/27 09:04:49;;;;;;;0.63;0.25;;;;;;;5.74;100.00;100497.47;7388452;19;20171;-83
2022/02/27 09:07:16;;;;;;;1.08;0.98;;;;;;;5.81;100.00;100500.09;7388445;19;20014;-82
2022/02/27 09:09:42;;;;;;;1.63;0.93;;;;;;;5.87;100.00;100500.38;7387920;19;20026;-82
2022/02/27 09:12:09;;;;;;;1.55;0.20;;;;;;;5.92;100.00;100503.44;7388231;19;20020;-82
2022/02/27 09:14:35;;;;;;;0.55;0.55;;;;;;;5.93;100.00;100499.47;7388059;19;20034;-82
2022/02/27 09:17:01;;;;;;;2.38;1.25;;;;;;;6.01;100.00;100509.19;7387704;19;20014;-83
2022/02/27 09:19:27;;;;;;;2.28;1.75;;;;;;;6.07;100.00;100504.69;7388992;19;20021;-83
2022/02/27 09:21:53;;;;;;;10.65;1.40;;;;;;;6.15;100.00;100504.53;7387834;19;20027;-82
2022/02/27 09:24:19;;;;;;;2.03;0.75;;;;;;;6.16;100.00;100493.03;7391761;19;20374;-83
2022/02/27 09:26:45;;;;;;;2.58;0.90;;;;;;;6.14;100.00;100492.69;7388703;19;20011;-83
2022/02/27 09:29:12;;;;;;;1.38;1.27;;;;;;;6.20;100.00;100493.72;7395226;19;20121;-82
2022/02/27 09:31:38;;;;;;;3.92;1.10;;;;;;;6.20;100.00;100495.72;7401168;19;20018;-83
2022/02/27 09:34:04;;;;;;;0.50;0.50;;;;;;;6.21;100.00;100494.50;7396025;19;20528;-83
2022/02/27 09:36:30;;;;;;;2.50;1.65;;;;;;;6.17;100.00;100496.59;7394597;19;20049;-82
2022/02/27 09:38:55;;;;;;;1.15;1.15;;;;;;;6.24;100.00;100496.44;7396713;19;20015;-85
2022/02/27 09:41:21;;;;;;;14.10;1.13;;;;;;;6.30;100.00;100500.25;7399194;19;20403;-84
2022/02/27 09:43:53;;;;;;;1.98;1.10;;;;;;;6.35;100.00;100502.47;7393919;19;20018;-86
2022/02/27 09:46:20;;;;;;;0.30;0.30;;;;;;;6.45;100.00;100495.94;7393189;19;20035;-84
2022/02/27 09:48:46;;;;;;;1.15;0.88;;;;;;;6.56;100.00;100497.19;7392368;19;20038;-85
2022/02/27 09:51:13;;;;;;;0.30;0.30;;;;;;;6.60;100.00;100491.59;7397410;19;20469;-83
2022/02/27 09:53:39;;;;;;;1.23;0.95;;;;;;;6.62;100.00;100489.19;7394080;19;20015;-84
2022/02/27 09:56:05;;;;;;;0.35;0.25;;;;;;;6.64;100.00;100492.28;7397321;19;20007;-84
2022/02/27 09:58:30;;;;;;;1.00;0.95;;;;;;;6.71;100.00;100473.50;7393853;19;20347;-83
2022/02/27 10:00:56;;;;;;;1.85;0.68;;;;;;;6.81;100.00;100466.94;7397614;19;20370;-83
2022/02/27 10:03:30;;;;;;;0.43;0.38;;;;;;;6.93;100.00;100468.19;7395380;19;20022;-82
2022/02/27 10:06:08;;;;;;;0.43;0.43;;;;;;;7.02;100.00;100473.13;7395225;19;20018;-84
2022/02/27 10:08:43;;;;;;;1.65;0.60;;;;;;;7.13;100.00;100479.91;7393787;19;20040;-84
2022/02/27 10:11:16;;;;;;;0.30;0.22;;;;;;;7.20;100.00;100467.88;7396399;19;20089;-83
2022/02/27 10:13:45;;;;;;;1.98;1.75;;;;;;;7.34;100.00;100479.31;7391389;19;20717;-84
2022/02/27 10:16:25;;;;;;;0.47;0.47;;;;;;;7.54;100.00;100487.47;7395764;19;20010;-82
2022/02/27 10:18:55;;;;;;;1.15;0.40;;;;;;;7.72;100.00;100492.50;7395523;19;20048;-81
2022/02/27 10:21:32;;;;;;;1.13;0.68;;;;;;;7.78;100.00;100491.53;7397475;19;20029;-83
2022/02/27 10:23:58;;;;;;;0.95;0.93;;;;;;;7.86;100.00;100487.31;7393671;19;20026;-81
2022/02/27 10:26:25;;;;;;;1.75;0.95;;;;;;;7.81;100.00;100484.34;7393937;19;20022;-82
2022/02/27 10:29:07;;;;;;;4.68;1.15;;;;;;;7.82;100.00;100486.66;7391856;19;20021;-82
2022/02/27 10:31:33;;;;;;;0.80;0.73;;;;;;;7.81;100.00;100478.78;7394749;19;20018;-82
2022/02/27 10:34:21;;;;;;;2.42;0.95;;;;;;;7.83;100.00;100479.91;7392560;19;20014;-83
2022/02/27 10:37:09;;;;;;;4.90;0.93;;;;;;;7.85;100.00;100468.38;7392664;19;20390;-83
2022/02/27 10:39:39;;;;;;;1.30;0.52;;;;;;;7.92;100.00;100477.25;7391435;19;21673;-83
2022/02/27 10:42:06;;;;;;;3.28;1.02;;;;;;;7.98;100.00;100478.25;7393439;19;20472;-82
2022/02/27 10:44:33;;;;;;;11.30;0.82;;;;;;;8.06;100.00;100473.25;7392108;19;20062;-82
2022/02/27 10:47:27;;;;;;;1.63;1.02;;;;;;;8.04;100.00;100465.38;7393273;19;20026;-83
2022/02/27 10:49:55;;;;;;;4.60;0.98;;;;;;;8.13;100.00;100461.94;7391571;19;20022;-82
2022/02/27 10:52:27;;;;;;;1.95;0.77;;;;;;;8.29;100.00;100464.66;7393141;19;20018;-83
2022/02/27 10:54:55;;;;;;;24.08;1.33;;;;;;;8.37;100.00;100460.41;7392128;19;20026;-81
2022/02/27 10:57:34;;;;;;;3.58;1.70;;;;;;;8.42;100.00;100456.31;7393256;19;20014;-82
2022/02/27 11:00:13;;;;;;;0.65;0.65;;;;;;;8.42;100.00;100468.19;7393205;19;20023;-82
2022/02/27 11:02:39;;;;;;;2.85;1.50;;;;;;;8.50;100.00;100457.63;7392015;19;20414;-82
2022/02/27 11:05:12;;;;;;;0.57;0.57;;;;;;;8.55;100.00;100454.28;7391676;19;20360;-82
2022/02/27 11:07:40;;;;;;;1.23;0.55;;;;;;;8.58;100.00;100465.25;7393199;19;20024;-82
2022/02/27 11:10:11;;;;;;;1.10;0.63;;;;;;;8.65;100.00;100447.59;7395556;19;20015;-83
2022/02/27 11:12:37;;;;;;;1.00;1.00;;;;;;;8.75;100.00;100457.56;7393258;19;20010;-83
2022/02/27 11:15:08;;;;;;;0.35;0.30;;;;;;;8.77;100.00;100444.78;7391153;19;20010;-83
2022/02/27 11:17:34;;;;;;;0.75;0.68;;;;;;;8.83;100.00;100442.22;7389411;19;20051;-83
2022/02/27 11:20:02;;;;;;;1.00;0.85;;;;;;;8.90;100.00;100437.19;7392513;19;20373;-83
2022/02/27 11:22:28;;;;;;;1.75;1.27;;;;;;;8.96;100.00;100440.97;7390048;19;20022;-82